Time;durP1;ratioP1;P1;durP2;ratioP2;P2;SDS_P1;SDS_P2;PMS_P1;PMS_P2;Temp;Humidity;BMP_temperature;BMP_pressure;BME280_temperature;BME280_humidity;BME280_pressure;Samples;Min_cycle;Max_cycle;Signal;HPM_P1;HPM_P2
2021/03/20 00:00:30;;;;;;;15.25;8.07;;;3.80;99.90;;;;;;5057755;28;20068;-67
2021/03/20 00:02:56;;;;;;;14.55;7.90;;;3.80;99.90;;;;;;5056502;28;20025;-67
2021/03/20 00:05:22;;;;;;;;;;;3.80;99.90;;;;;;5058069;28;20092;-67
2021/03/20 00:07:49;;;;;;;14.00;7.88;;;3.80;99.90;;;;;;5057843;28;19905;-67
2021/03/20 00:10:17;;;;;;;11.85;8.07;;;3.70;99.90;;;;;;5057807;28;20024;-67
2021/03/20 00:12:43;;;;;;;19.75;8.82;;;3.80;99.90;;;;;;5057784;28;20025;-67
2021/03/20 00:15:11;;;;;;;14.95;8.43;;;3.80;99.90;;;;;;5057680;28;20555;-67
2021/03/20 00:17:37;;;;;;;16.33;8.23;;;4.00;99.90;;;;;;5056437;28;20508;-67
2021/03/20 00:20:04;;;;;;;;;;;3.80;99.90;;;;;;5057693;28;20029;-67
2021/03/20 00:22:31;;;;;;;12.88;6.97;;;3.70;99.90;;;;;;5057669;28;19955;-67
2021/03/20 00:24:57;;;;;;;15.00;7.47;;;3.80;99.90;;;;;;5057401;28;20493;-67
2021/03/20 00:27:22;;;;;;;;;;;3.70;99.90;;;;;;5058248;28;20021;-67
2021/03/20 00:29:48;;;;;;;9.32;7.60;;;3.60;99.90;;;;;;5057387;28;19905;-67
2021/03/20 00:32:14;;;;;;;20.40;8.65;;;3.60;99.90;;;;;;5057938;28;20025;-67
2021/03/20 00:34:40;;;;;;;;;;;3.20;99.90;;;;;;5053537;28;20040;-67
2021/03/20 00:37:06;;;;;;;19.88;8.07;;;2.90;99.90;;;;;;5057228;28;19995;-67
2021/03/20 00:39:32;;;;;;;17.48;7.57;;;3.40;99.90;;;;;;5057289;28;20028;-67
2021/03/20 00:41:58;;;;;;;;;;;3.50;99.90;;;;;;5058263;28;20025;-67
2021/03/20 00:44:24;;;;;;;16.15;9.38;;;3.40;99.90;;;;;;5057183;28;19909;-67
2021/03/20 00:46:50;;;;;;;24.30;8.10;;;3.20;99.90;;;;;;5057642;28;20028;-67
2021/03/20 00:49:15;;;;;;;;;;;3.30;99.90;;;;;;5057487;28;20033;-67
2021/03/20 00:51:41;;;;;;;19.00;7.32;;;3.10;99.90;;;;;;5057405;28;19905;-67
2021/03/20 00:54:07;;;;;;;;;;;3.30;99.90;;;;;;5057569;28;20021;-67
2021/03/20 00:56:32;;;;;;;14.48;8.10;;;3.20;99.90;;;;;;5057325;28;19905;-67
2021/03/20 00:58:58;;;;;;;;;;;3.40;99.90;;;;;;5057482;28;20037;-67
2021/03/20 01:01:24;;;;;;;15.93;7.75;;;3.30;99.90;;;;;;5057141;28;20058;-67
2021/03/20 01:03:50;;;;;;;;;;;3.00;99.90;;;;;;5057521;28;20790;-67
2021/03/20 01:06:20;;;;;;;13.95;8.10;;;3.30;99.90;;;;;;5057193;28;19905;-67
2021/03/20 01:08:46;;;;;;;11.95;7.03;;;3.50;99.90;;;;;;5056959;28;20033;-67
2021/03/20 01:11:14;;;;;;;13.07;7.65;;;3.20;99.90;;;;;;5057103;28;20021;-67
2021/03/20 01:13:41;;;;;;;12.98;7.55;;;3.10;99.90;;;;;;5057031;28;20041;-67
2021/03/20 01:16:07;;;;;;;13.55;8.00;;;3.10;99.90;;;;;;5057085;28;20090;-67
2021/03/20 01:18:34;;;;;;;13.65;7.85;;;3.00;99.90;;;;;;5056756;28;20033;-67
2021/03/20 01:21:00;;;;;;;12.57;7.70;;;3.00;99.90;;;;;;5056855;28;20021;-67
2021/03/20 01:23:26;;;;;;;18.15;8.10;;;1.90;99.90;;;;;;5056837;28;20111;-67
2021/03/20 01:25:51;;;;;;;;;;;3.10;99.90;;;;;;5057514;28;20093;-67
2021/03/20 01:28:20;;;;;;;12.55;7.47;;;3.00;99.90;;;;;;5056810;28;19912;-67
2021/03/20 01:30:47;;;;;;;12.65;7.72;;;3.00;99.90;;;;;;5056850;28;20029;-67
2021/03/20 01:33:12;;;;;;;;;;;3.10;99.90;;;;;;5055878;28;20025;-67
2021/03/20 01:35:38;;;;;;;15.23;8.18;;;3.00;99.90;;;;;;5052949;28;19905;-67
2021/03/20 01:38:04;;;;;;;;;;;2.90;99.90;;;;;;5057165;28;20159;-67
2021/03/20 01:40:38;;;;;;;16.23;6.93;;;2.90;99.90;;;;;;5056785;28;19905;-67
2021/03/20 01:43:05;;;;;;;12.00;8.05;;;4.10;99.90;;;;;;5056756;28;20021;-67
2021/03/20 01:45:34;;;;;;;14.75;7.78;;;3.40;99.90;;;;;;5056968;28;20025;-67
2021/03/20 01:48:21;;;;;;;12.93;8.27;;;2.80;99.90;;;;;;5055467;28;20047;-67
2021/03/20 01:50:47;;;;;;;14.00;8.07;;;2.80;99.90;;;;;;5056257;28;20550;-67
2021/03/20 01:53:31;;;;;;;;;;;3.10;99.90;;;;;;5055871;28;20025;-67
2021/03/20 01:55:58;;;;;;;13.02;8.38;;;3.10;99.90;;;;;;5056574;28;19905;-67
2021/03/20 01:58:24;;;;;;;16.90;7.78;;;2.30;99.90;;;;;;5056907;28;20428;-67
2021/03/20 02:00:56;;;;;;;23.92;8.70;;;2.70;99.90;;;;;;5056282;28;20049;-67
2021/03/20 02:03:22;;;;;;;12.73;7.13;;;3.00;99.90;;;;;;5060019;28;20057;-67
2021/03/20 02:05:48;;;;;;;;;;;2.90;99.90;;;;;;5060273;28;20059;-67
2021/03/20 02:08:18;;;;;;;16.30;7.07;;;2.90;99.90;;;;;;5060565;28;19904;-67
2021/03/20 02:10:46;;;;;;;18.13;9.00;;;3.10;99.90;;;;;;5060172;28;20043;-67
2021/03/20 02:13:43;;;;;;;19.33;7.95;;;2.90;99.90;;;;;;5060130;28;20017;-67
2021/03/20 02:16:17;;;;;;;11.93;7.90;;;2.90;99.90;;;;;;5057756;28;20033;-67
2021/03/20 02:18:54;;;;;;;15.10;8.25;;;3.00;99.90;;;;;;5059748;28;20083;-67
2021/03/20 02:21:42;;;;;;;12.55;8.38;;;3.30;99.90;;;;;;5059798;28;20013;-67
2021/03/20 02:24:21;;;;;;;13.52;8.23;;;3.00;99.90;;;;;;5059860;28;20078;-67
2021/03/20 02:27:26;;;;;;;14.48;8.10;;;3.10;99.90;;;;;;5058389;28;20025;-67
2021/03/20 02:30:36;;;;;;;12.52;8.95;;;3.30;99.90;;;;;;5037703;28;20038;-68
2021/03/20 02:33:29;;;;;;;19.38;7.45;;;3.20;99.90;;;;;;5056756;28;20092;-67
2021/03/20 02:36:17;;;;;;;11.30;7.50;;;3.10;99.90;;;;;;5055728;28;20028;-67
2021/03/20 02:38:48;;;;;;;15.20;8.00;;;3.30;99.90;;;;;;5059548;28;20096;-68
2021/03/20 02:41:42;;;;;;;12.98;7.97;;;3.10;99.90;;;;;;5059470;28;20457;-67
2021/03/20 02:44:40;;;;;;;13.82;8.07;;;3.20;99.90;;;;;;5059402;28;20025;-67
2021/03/20 02:47:10;;;;;;;13.23;7.50;;;3.40;99.90;;;;;;5059480;28;20056;-67
2021/03/20 02:50:04;;;;;;;22.83;8.27;;;3.20;99.90;;;;;;5058897;28;20021;-67
2021/03/20 02:52:49;;;;;;;15.38;7.93;;;2.90;99.90;;;;;;5058812;28;20477;-67
2021/03/20 02:55:26;;;;;;;16.67;8.98;;;2.90;99.90;;;;;;5059500;28;20108;-67
2021/03/20 02:58:22;;;;;;;16.90;7.88;;;3.00;99.90;;;;;;5059395;28;20024;-67
2021/03/20 03:01:11;;;;;;;20.10;8.48;;;3.10;99.90;;;;;;5058961;28;20500;-67
2021/03/20 03:03:40;;;;;;;26.20;10.52;;;3.00;99.90;;;;;;5058882;28;20036;-67
2021/03/20 03:06:24;;;;;;;13.25;8.30;;;2.80;99.90;;;;;;5059051;28;20080;-67
2021/03/20 03:09:15;;;;;;;16.00;7.80;;;2.70;99.90;;;;;;5059045;28;20029;-67
2021/03/20 03:11:56;;;;;;;14.02;7.97;;;2.60;99.90;;;;;;5059048;28;20043;-67
2021/03/20 03:14:37;;;;;;;14.15;8.70;;;2.60;99.90;;;;;;5058162;28;20033;-67
2021/03/20 03:17:04;;;;;;;15.20;7.90;;;2.70;99.90;;;;;;5058993;28;20021;-67
2021/03/20 03:19:51;;;;;;;15.43;7.72;;;2.70;99.90;;;;;;5058839;28;20032;-67
2021/03/20 03:22:24;;;;;;;14.10;8.23;;;2.70;99.90;;;;;;5058844;28;20500;-67
2021/03/20 03:24:56;;;;;;;11.52;7.68;;;2.50;99.90;;;;;;5058564;28;20033;-67
2021/03/20 03:27:24;;;;;;;15.77;8.27;;;2.60;99.90;;;;;;5058778;28;20063;-67
2021/03/20 03:29:49;;;;;;;16.58;8.48;;;2.60;99.90;;;;;;5058433;28;20025;-67
2021/03/20 03:32:19;;;;;;;;;;;2.60;99.90;;;;;;5059105;28;20047;-67
2021/03/20 03:34:58;;;;;;;14.55;8.13;;;2.60;99.90;;;;;;5054518;28;20287;-67
2021/03/20 03:37:41;;;;;;;19.27;8.15;;;2.60;99.90;;;;;;5058427;28;20386;-67
2021/03/20 03:40:14;;;;;;;14.43;8.52;;;2.50;99.90;;;;;;5058532;28;20557;-67
2021/03/20 03:42:40;;;;;;;15.05;8.85;;;2.40;99.90;;;;;;5058991;28;20036;-67
2021/03/20 03:45:08;;;;;;;;;;;2.60;99.90;;;;;;5058726;28;20021;-67
2021/03/20 03:47:34;;;;;;;19.25;8.40;;;2.60;99.90;;;;;;5058095;28;19912;-67
2021/03/20 03:50:00;;;;;;;;;;;2.70;99.90;;;;;;5058449;28;20013;-67
2021/03/20 03:52:27;;;;;;;18.43;7.90;;;2.30;99.90;;;;;;5058065;28;20296;-67
2021/03/20 03:54:53;;;;;;;13.68;8.23;;;2.20;99.90;;;;;;5058523;28;20058;-67
2021/03/20 03:57:18;;;;;;;;;;;2.60;99.90;;;;;;5058506;28;20617;-67
2021/03/20 04:00:09;;;;;;;11.73;8.20;;;2.40;99.90;;;;;;5058085;28;20346;-67
2021/03/20 04:02:47;;;;;;;17.15;8.75;;;2.50;99.90;;;;;;5058053;28;20044;-67
2021/03/20 04:05:43;;;;;;;13.65;8.73;;;2.40;99.90;;;;;;5056246;28;20396;-67
2021/03/20 04:08:29;;;;;;;14.20;8.98;;;2.50;99.90;;;;;;5057809;28;20036;-67
2021/03/20 04:11:21;;;;;;;13.90;9.37;;;2.30;99.90;;;;;;5057978;28;20025;-67
2021/03/20 04:14:15;;;;;;;15.40;8.98;;;2.10;99.90;;;;;;5056443;28;20021;-67
2021/03/20 04:16:58;;;;;;;13.63;8.60;;;2.40;99.90;;;;;;5052421;28;20489;-67
2021/03/20 04:19:48;;;;;;;18.48;9.88;;;2.10;99.90;;;;;;5057530;28;20021;-67
2021/03/20 04:22:43;;;;;;;15.23;8.55;;;2.60;99.90;;;;;;5057772;28;20040;-67
2021/03/20 04:25:26;;;;;;;14.20;9.05;;;1.50;99.90;;;;;;5042129;28;20570;-67
2021/03/20 04:28:16;;;;;;;19.25;9.25;;;2.40;99.90;;;;;;5056225;28;20021;-67
2021/03/20 04:30:47;;;;;;;13.23;8.77;;;2.30;99.90;;;;;;5056991;28;20493;-67
2021/03/20 04:33:24;;;;;;;17.63;10.32;;;2.20;99.90;;;;;;5057410;28;20029;-67
2021/03/20 04:35:50;;;;;;;15.63;9.38;;;2.10;99.90;;;;;;5053573;28;20063;-67
2021/03/20 04:38:16;;;;;;;;;;;2.40;99.90;;;;;;5057743;28;20036;-67
2021/03/20 04:40:58;;;;;;;11.93;8.18;;;2.20;99.90;;;;;;5057295;28;19904;-67
2021/03/20 04:43:29;;;;;;;15.30;8.88;;;1.40;99.90;;;;;;5057403;28;20618;-67
2021/03/20 04:46:03;;;;;;;12.77;9.60;;;2.50;99.90;;;;;;5057233;28;20021;-67
2021/03/20 04:48:38;;;;;;;14.80;10.13;;;2.10;99.90;;;;;;5057100;28;20166;-67
2021/03/20 04:51:21;;;;;;;18.05;9.88;;;1.80;99.90;;;;;;5057082;28;20040;-67
2021/03/20 04:53:49;;;;;;;14.82;9.85;;;2.00;99.90;;;;;;5057235;28;20025;-67
2021/03/20 04:56:19;;;;;;;20.23;11.38;;;1.70;99.90;;;;;;5057321;28;20036;-67
2021/03/20 04:58:57;;;;;;;13.52;9.43;;;2.10;99.90;;;;;;5057142;28;20028;-67
2021/03/20 05:01:47;;;;;;;19.95;10.65;;;2.30;99.90;;;;;;5057041;28;20068;-67
2021/03/20 05:04:28;;;;;;;17.17;10.35;;;2.20;99.90;;;;;;5056008;28;20477;-67
2021/03/20 05:06:57;;;;;;;12.32;8.90;;;2.10;99.90;;;;;;5057053;28;20115;-67
2021/03/20 05:09:26;;;;;;;17.13;10.43;;;2.20;99.90;;;;;;5057264;28;20025;-67
2021/03/20 05:12:10;;;;;;;20.48;10.65;;;1.80;99.90;;;;;;5057425;28;20013;-67
2021/03/20 05:14:45;;;;;;;26.05;12.20;;;2.10;99.90;;;;;;5057482;28;20370;-67
2021/03/20 05:17:17;;;;;;;23.42;11.73;;;2.50;99.90;;;;;;5057108;28;20488;-67
2021/03/20 05:19:43;;;;;;;14.90;10.07;;;2.00;99.90;;;;;;5056826;28;20025;-67
2021/03/20 05:22:16;;;;;;;17.13;10.38;;;2.10;99.90;;;;;;5056889;28;20103;-67
2021/03/20 05:24:43;;;;;;;22.40;11.57;;;2.40;99.90;;;;;;5056948;28;20035;-67
2021/03/20 05:27:16;;;;;;;15.65;11.10;;;2.20;99.90;;;;;;5057102;28;20021;-67
2021/03/20 05:29:42;;;;;;;28.98;13.32;;;2.30;99.90;;;;;;5056868;28;20096;-67
2021/03/20 05:32:08;;;;;;;24.67;11.52;;;2.50;99.90;;;;;;5057158;28;20067;-67
2021/03/20 05:34:35;;;;;;;;;;;1.90;99.90;;;;;;5053035;28;20033;-67
2021/03/20 05:37:01;;;;;;;18.33;10.63;;;2.50;99.90;;;;;;5058380;28;19905;-67
2021/03/20 05:39:27;;;;;;;18.25;11.20;;;2.30;99.90;;;;;;5060736;28;20472;-67
2021/03/20 05:42:12;;;;;;;;;;;2.10;99.90;;;;;;5061298;28;20035;-67
2021/03/20 05:45:12;;;;;;;17.48;11.43;;;2.20;99.90;;;;;;5060471;28;20480;-67
2021/03/20 05:47:57;;;;;;;25.98;11.30;;;2.30;99.90;;;;;;5060778;28;20481;-67
2021/03/20 05:51:10;;;;;;;15.85;11.38;;;2.40;99.90;;;;;;5060277;28;20385;-67
2021/03/20 05:54:00;;;;;;;24.33;11.45;;;2.10;99.90;;;;;;5060473;28;20033;-67
2021/03/20 05:56:46;;;;;;;20.52;10.73;;;2.00;99.90;;;;;;5060625;28;20032;-67
2021/03/20 05:59:24;;;;;;;16.00;11.57;;;2.20;99.90;;;;;;5060299;28;20108;-67
2021/03/20 06:02:06;;;;;;;18.95;12.63;;;2.70;99.90;;;;;;5060070;28;20132;-67
2021/03/20 06:05:04;;;;;;;22.45;11.93;;;2.30;99.90;;;;;;5060182;28;20389;-67
2021/03/20 06:07:30;;;;;;;29.55;12.38;;;2.20;99.90;;;;;;5058872;28;20021;-67
2021/03/20 06:10:29;;;;;;;18.20;12.60;;;2.20;99.90;;;;;;5060017;28;20028;-67
2021/03/20 06:13:16;;;;;;;21.45;11.27;;;2.50;99.90;;;;;;5060214;28;20021;-67
2021/03/20 06:16:05;;;;;;;24.23;11.80;;;2.40;99.90;;;;;;5059995;28;20029;-67
2021/03/20 06:18:30;;;;;;;18.83;11.45;;;2.50;99.90;;;;;;5059586;28;20397;-67
2021/03/20 06:21:06;;;;;;;;;;;2.20;99.90;;;;;;5059002;28;20112;-68
2021/03/20 06:23:47;;;;;;;28.92;12.82;;;2.30;99.90;;;;;;5059669;28;19909;-67
2021/03/20 06:26:27;;;;;;;18.35;12.05;;;2.20;99.90;;;;;;5059924;28;20053;-67
2021/03/20 06:29:05;;;;;;;18.20;11.52;;;1.50;99.90;;;;;;5059829;28;20029;-67
2021/03/20 06:31:48;;;;;;;22.35;12.57;;;2.10;99.90;;;;;;5059754;28;20009;-67
2021/03/20 06:34:35;;;;;;;16.65;10.27;;;2.30;99.90;;;;;;5055786;28;20541;-67
2021/03/20 06:37:03;;;;;;;;;;;2.60;99.90;;;;;;5060162;28;20040;-67
2021/03/20 06:39:40;;;;;;;15.73;10.85;;;2.20;99.90;;;;;;5059489;28;19908;-67
2021/03/20 06:42:12;;;;;;;26.98;12.75;;;2.90;99.90;;;;;;5059661;28;20028;-67
2021/03/20 06:44:42;;;;;;;17.75;11.85;;;2.30;99.90;;;;;;5059309;28;20025;-67
2021/03/20 06:47:20;;;;;;;18.70;12.20;;;2.30;99.90;;;;;;5059325;28;20025;-68
2021/03/20 06:50:13;;;;;;;22.70;12.25;;;2.40;99.90;;;;;;5059249;28;20017;-67
2021/03/20 06:52:39;;;;;;;18.00;11.10;;;2.50;99.90;;;;;;5059375;28;20073;-67
2021/03/20 06:55:23;;;;;;;;;;;2.50;99.90;;;;;;5059766;28;20104;-67
2021/03/20 06:57:49;;;;;;;23.58;13.60;;;2.80;99.90;;;;;;5059358;28;19911;-67
2021/03/20 07:00:24;;;;;;;20.55;11.48;;;3.00;99.90;;;;;;5059289;28;20053;-67
2021/03/20 07:03:05;;;;;;;18.35;11.38;;;3.20;99.90;;;;;;5059240;28;20028;-67
2021/03/20 07:06:06;;;;;;;22.27;12.68;;;3.00;99.90;;;;;;5053783;28;20033;-67
2021/03/20 07:08:58;;;;;;;48.22;31.50;;;3.30;99.90;;;;;;5034435;28;20055;-67
2021/03/20 07:11:27;;;;;;;189.02;124.72;;;3.30;99.90;;;;;;5059126;28;20032;-67
2021/03/20 07:13:59;;;;;;;30.30;21.30;;;3.40;99.90;;;;;;5045314;28;20056;-67
2021/03/20 07:16:28;;;;;;;23.85;13.48;;;3.50;99.90;;;;;;5058901;28;20367;-67
2021/03/20 07:19:11;;;;;;;19.05;13.48;;;3.80;99.90;;;;;;5057719;28;20075;-67
2021/03/20 07:21:45;;;;;;;19.77;11.52;;;4.00;99.90;;;;;;5057462;28;20086;-67
2021/03/20 07:24:20;;;;;;;15.95;11.55;;;3.90;99.90;;;;;;5058792;28;20029;-67
2021/03/20 07:26:58;;;;;;;15.50;12.50;;;4.50;99.90;;;;;;5058808;28;20025;-67
2021/03/20 07:29:49;;;;;;;18.98;11.55;;;4.70;99.90;;;;;;5058593;28;20017;-67
2021/03/20 07:32:38;;;;;;;20.25;12.70;;;4.90;99.90;;;;;;5058546;28;20029;-67
2021/03/20 07:35:32;;;;;;;17.63;11.05;;;5.20;99.90;;;;;;5054253;28;20074;-67
2021/03/20 07:38:13;;;;;;;19.00;13.38;;;5.30;99.90;;;;;;5054376;28;20055;-67
2021/03/20 07:40:39;;;;;;;26.45;13.07;;;5.60;99.90;;;;;;5058361;28;20017;-67
2021/03/20 07:43:16;;;;;;;;;;;5.90;99.90;;;;;;5058876;28;20033;-67
2021/03/20 07:45:43;;;;;;;18.02;11.23;;;6.10;99.90;;;;;;5058410;28;20003;-67
2021/03/20 07:48:35;;;;;;;22.33;13.15;;;6.60;99.90;;;;;;5058454;28;20024;-68
2021/03/20 07:51:05;;;;;;;22.23;15.60;;;7.60;99.90;;;;;;5055965;28;20519;-68
2021/03/20 07:53:49;;;;;;;23.70;17.67;;;6.70;99.90;;;;;;5058470;28;20485;-67
2021/03/20 07:56:15;;;;;;;30.35;20.02;;;6.80;99.90;;;;;;5058071;28;20029;-67
2021/03/20 07:58:48;;;;;;;;;;;7.10;99.90;;;;;;5058163;28;20120;-67
2021/03/20 08:01:30;;;;;;;55.83;32.80;;;7.30;99.90;;;;;;5057605;28;19917;-68
2021/03/20 08:04:02;;;;;;;47.72;33.10;;;7.50;99.90;;;;;;5057514;28;20029;-68
2021/03/20 08:06:41;;;;;;;39.35;25.45;;;7.60;99.90;;;;;;5057846;28;20021;-68
2021/03/20 08:09:10;;;;;;;23.55;15.90;;;8.10;99.90;;;;;;5057990;28;20381;-68
2021/03/20 08:11:37;;;;;;;19.88;14.73;;;8.60;99.90;;;;;;5057978;28;20032;-68
2021/03/20 08:14:08;;;;;;;18.83;12.73;;;8.80;99.90;;;;;;5058108;28;20043;-68
2021/03/20 08:16:34;;;;;;;18.38;10.90;;;9.30;99.90;;;;;;5057720;28;20035;-68
2021/03/20 08:19:00;;;;;;;;;;;9.70;99.90;;;;;;5058042;28;20385;-67
2021/03/20 08:21:47;;;;;;;15.40;10.52;;;10.00;99.90;;;;;;5057510;28;19951;-68
2021/03/20 08:24:26;;;;;;;17.52;10.63;;;10.50;99.90;;;;;;5057876;28;20082;-67
2021/03/20 08:27:03;;;;;;;14.77;9.40;;;10.80;99.90;;;;;;5057566;28;20024;-68
2021/03/20 08:30:04;;;;;;;20.25;11.40;;;11.20;99.90;;;;;;5057454;28;20013;-67
2021/03/20 08:33:00;;;;;;;17.85;10.52;;;11.30;99.90;;;;;;5057545;28;20571;-67
2021/03/20 08:35:34;;;;;;;13.48;9.77;;;11.10;99.90;;;;;;5053271;28;20033;-67
2021/03/20 08:38:30;;;;;;;18.02;10.45;;;11.10;99.90;;;;;;5057575;28;20029;-67
2021/03/20 08:41:15;;;;;;;14.48;9.85;;;11.30;99.90;;;;;;5057281;28;20541;-67
2021/03/20 08:44:00;;;;;;;15.88;9.65;;;11.60;99.90;;;;;;5057529;28;20064;-67
2021/03/20 08:46:41;;;;;;;14.35;11.38;;;11.60;99.90;;;;;;5057595;28;20036;-67
2021/03/20 08:49:24;;;;;;;12.55;7.55;;;11.70;99.90;;;;;;5056990;28;20025;-67
2021/03/20 08:52:04;;;;;;;12.32;9.55;;;12.00;99.90;;;;;;5057397;28;20025;-67
2021/03/20 08:55:00;;;;;;;20.55;10.35;;;12.20;99.90;;;;;;5057346;28;20029;-68
2021/03/20 08:57:57;;;;;;;16.10;10.40;;;11.70;99.90;;;;;;5057204;28;20033;-68
2021/03/20 09:00:39;;;;;;;22.10;11.65;;;12.00;99.90;;;;;;5057176;28;20056;-67
2021/03/20 09:03:11;;;;;;;16.95;10.27;;;11.90;99.90;;;;;;5057215;28;20112;-67
2021/03/20 09:05:43;;;;;;;16.95;10.27;;;11.90;99.90;;;;;;5056785;28;20500;-67
2021/03/20 09:08:37;;;;;;;12.90;9.60;;;12.20;99.90;;;;;;5055850;28;20556;-67
2021/03/20 09:11:16;;;;;;;11.50;9.38;;;12.40;99.90;;;;;;5057008;28;20024;-67
2021/03/20 09:13:53;;;;;;;12.48;9.50;;;12.60;99.90;;;;;;5061122;28;20082;-68
2021/03/20 09:16:25;;;;;;;14.43;10.18;;;12.40;99.90;;;;;;5061257;28;20078;-68
2021/03/20 09:18:51;;;;;;;16.23;10.88;;;12.20;99.90;;;;;;5060794;28;20029;-68
2021/03/20 09:21:19;;;;;;;13.48;9.70;;;11.90;99.90;;;;;;5060929;28;20116;-67
2021/03/20 09:23:49;;;;;;;14.25;10.63;;;11.90;99.90;;;;;;5060916;28;20060;-68
2021/03/20 09:26:39;;;;;;;14.10;10.95;;;11.80;99.90;;;;;;5060970;28;20025;-67
2021/03/20 09:29:33;;;;;;;19.42;12.27;;;11.70;99.90;;;;;;5059468;28;20021;-68
2021/03/20 09:32:06;;;;;;;13.50;10.52;;;11.50;99.90;;;;;;5045030;28;20021;-68
2021/03/20 09:34:40;;;;;;;14.07;10.70;;;11.30;99.90;;;;;;5056987;28;20035;-68
2021/03/20 09:37:26;;;;;;;13.52;10.27;;;11.40;99.90;;;;;;5060733;28;20032;-68
2021/03/20 09:39:55;;;;;;;13.45;9.60;;;11.40;99.90;;;;;;5060619;28;20028;-68
2021/03/20 09:42:25;;;;;;;21.30;10.70;;;11.50;99.90;;;;;;5060733;28;20028;-68
2021/03/20 09:45:22;;;;;;;14.63;10.13;;;12.00;99.90;;;;;;5060752;28;20029;-68
2021/03/20 09:47:56;;;;;;;11.63;9.25;;;12.10;99.90;;;;;;5059067;28;20043;-67
2021/03/20 09:50:32;;;;;;;13.40;9.45;;;12.20;99.90;;;;;;5060264;28;20071;-68
2021/03/20 09:53:10;;;;;;;;;;;12.50;99.90;;;;;;5061020;28;20017;-68
2021/03/20 09:55:42;;;;;;;18.30;10.02;;;13.10;99.90;;;;;;5060397;28;19959;-68
2021/03/20 09:58:20;;;;;;;11.68;9.18;;;13.40;99.90;;;;;;5059033;28;20025;-68
2021/03/20 10:00:52;;;;;;;11.48;9.50;;;13.90;99.90;;;;;;5060182;28;20563;-68
2021/03/20 10:03:36;;;;;;;13.15;9.35;;;14.20;99.90;;;;;;5059988;28;20387;-67
2021/03/20 10:06:27;;;;;;;14.85;12.15;;;14.20;99.30;;;;;;5060192;28;20078;-68
2021/03/20 10:09:08;;;;;;;12.48;11.18;;;14.60;98.30;;;;;;5058779;28;20059;-68
2021/03/20 10:11:52;;;;;;;14.23;11.18;;;14.90;97.60;;;;;;5060254;28;20021;-68
2021/03/20 10:14:33;;;;;;;11.52;9.88;;;15.20;96.30;;;;;;5060271;28;20025;-67
2021/03/20 10:17:17;;;;;;;11.80;8.75;;;15.40;95.20;;;;;;5058592;28;20025;-67
2021/03/20 10:19:52;;;;;;;9.10;8.15;;;15.50;94.40;;;;;;5059759;28;20489;-67
2021/03/20 10:22:30;;;;;;;12.68;9.57;;;15.70;92.90;;;;;;5058063;28;20035;-68
2021/03/20 10:24:57;;;;;;;11.75;9.85;;;15.80;91.20;;;;;;5059782;28;20033;-67
2021/03/20 10:27:29;;;;;;;9.77;8.38;;;15.90;91.90;;;;;;5059886;28;20036;-68
2021/03/20 10:30:29;;;;;;;12.65;9.90;;;15.80;90.40;;;;;;5059769;28;20036;-67
2021/03/20 10:32:56;;;;;;;11.27;8.07;;;15.90;90.50;;;;;;5059756;28;20419;-67
2021/03/20 10:35:22;;;;;;;14.80;9.18;;;16.00;91.00;;;;;;5055735;28;20063;-67
2021/03/20 10:37:48;;;;;;;12.07;8.55;;;16.30;90.50;;;;;;5059503;28;20425;-67
2021/03/20 10:40:25;;;;;;;12.38;8.20;;;16.30;86.00;;;;;;5059824;28;20486;-67
2021/03/20 10:43:01;;;;;;;16.50;10.57;;;16.10;87.30;;;;;;5059800;28;20124;-67
2021/03/20 10:45:32;;;;;;;9.13;8.23;;;16.40;87.90;;;;;;5059523;28;20032;-67
2021/03/20 10:48:25;;;;;;;11.57;9.15;;;16.80;88.10;;;;;;5059528;28;20021;-67
2021/03/20 10:51:02;;;;;;;11.35;9.02;;;16.90;87.50;;;;;;5059205;28;20029;-67
2021/03/20 10:53:34;;;;;;;10.55;8.43;;;16.90;86.90;;;;;;5059422;28;20021;-67
2021/03/20 10:56:00;;;;;;;11.10;9.02;;;16.80;89.20;;;;;;5059368;28;20481;-68
2021/03/20 10:58:29;;;;;;;12.18;8.07;;;17.00;88.10;;;;;;5057997;28;20032;-68
2021/03/20 11:00:56;;;;;;;11.10;8.35;;;17.90;85.70;;;;;;5059064;28;20627;-67
2021/03/20 11:03:35;;;;;;;14.50;9.52;;;18.20;85.00;;;;;;5058791;28;20100;-67
2021/03/20 11:06:14;;;;;;;15.48;9.85;;;17.90;82.30;;;;;;5059193;28;20028;-68
2021/03/20 11:08:42;;;;;;;9.43;8.45;;;18.30;80.40;;;;;;5059264;28;20029;-68
2021/03/20 11:11:27;;;;;;;10.77;8.18;;;18.20;73.80;;;;;;5059065;28;20040;-68
2021/03/20 11:14:00;;;;;;;11.90;7.00;;;18.20;75.50;;;;;;5059435;28;20048;-67
2021/03/20 11:16:27;;;;;;;8.75;5.85;;;18.90;75.00;;;;;;5059042;28;20060;-68
2021/03/20 11:19:07;;;;;;;10.18;8.15;;;19.80;74.60;;;;;;5058720;28;20083;-68
2021/03/20 11:21:39;;;;;;;10.10;7.72;;;20.20;71.80;;;;;;5058780;28;20029;-68
2021/03/20 11:24:22;;;;;;;12.70;8.20;;;19.70;71.20;;;;;;5058918;28;20029;-68
2021/03/20 11:26:49;;;;;;;11.93;9.60;;;19.60;71.00;;;;;;5058742;28;20024;-68
2021/03/20 11:29:20;;;;;;;12.93;9.05;;;19.90;68.80;;;;;;5058583;28;20092;-68
2021/03/20 11:31:54;;;;;;;9.65;7.80;;;19.50;68.30;;;;;;5044238;28;20048;-68
2021/03/20 11:34:41;;;;;;;11.10;8.35;;;19.60;69.80;;;;;;5053825;28;20051;-68
2021/03/20 11:37:19;;;;;;;8.43;6.03;;;19.80;68.30;;;;;;5058686;28;20033;-68
2021/03/20 11:39:45;;;;;;;7.47;6.75;;;19.90;65.50;;;;;;5058441;28;20064;-68
2021/03/20 11:42:13;;;;;;;9.52;7.50;;;20.20;67.90;;;;;;5058606;28;20025;-68
2021/03/20 11:44:45;;;;;;;8.20;6.60;;;20.10;63.70;;;;;;5058358;28;20021;-68
2021/03/20 11:47:27;;;;;;;7.18;5.65;;;19.80;65.60;;;;;;5058405;28;20036;-68
2021/03/20 11:49:56;;;;;;;10.25;7.07;;;19.50;67.90;;;;;;5058158;28;20053;-68
2021/03/20 11:52:43;;;;;;;8.57;7.25;;;19.80;64.20;;;;;;5058021;28;20020;-68
2021/03/20 11:55:17;;;;;;;6.05;5.28;;;20.40;66.60;;;;;;5056852;28;20484;-68
2021/03/20 11:57:43;;;;;;;9.27;8.02;;;20.40;62.10;;;;;;5058440;28;20051;-68
2021/03/20 12:00:39;;;;;;;6.15;5.55;;;20.40;62.20;;;;;;5057925;28;20409;-68
2021/03/20 12:03:20;;;;;;;5.50;4.30;;;20.80;62.10;;;;;;5057982;28;20033;-68
2021/03/20 12:05:48;;;;;;;6.65;5.25;;;20.70;60.20;;;;;;5057898;28;20029;-68
2021/03/20 12:08:37;;;;;;;4.78;4.20;;;20.40;59.90;;;;;;5057929;28;20103;-68
2021/03/20 12:11:06;;;;;;;6.40;3.65;;;20.50;59.90;;;;;;5057915;28;20036;-68
2021/03/20 12:13:43;;;;;;;4.70;4.20;;;20.60;62.30;;;;;;5057845;28;20024;-68
2021/03/20 12:16:24;;;;;;;5.35;3.28;;;21.20;59.50;;;;;;5057888;28;20017;-68
2021/03/20 12:18:52;;;;;;;3.10;2.78;;;21.30;57.50;;;;;;5057523;28;20021;-68
2021/03/20 12:21:18;;;;;;;4.03;3.63;;;21.00;55.90;;;;;;5057557;28;20048;-68
2021/03/20 12:23:58;;;;;;;5.18;3.22;;;21.00;57.10;;;;;;5057880;28;20017;-68
2021/03/20 12:26:35;;;;;;;4.35;3.50;;;21.30;56.50;;;;;;5057460;28;20032;-68
2021/03/20 12:29:36;;;;;;;4.72;2.58;;;20.90;56.90;;;;;;5057604;28;20017;-68
2021/03/20 12:32:21;;;;;;;5.45;2.63;;;21.20;58.30;;;;;;5046775;28;20021;-68
2021/03/20 12:34:47;;;;;;;5.75;3.28;;;21.10;55.40;;;;;;5053337;28;20104;-68
2021/03/20 12:37:20;;;;;;;3.75;2.58;;;20.90;55.50;;;;;;5057526;28;20104;-68
2021/03/20 12:39:48;;;;;;;4.50;2.75;;;20.50;57.80;;;;;;5057362;28;20021;-68
2021/03/20 12:42:15;;;;;;;3.78;2.47;;;20.70;58.20;;;;;;5057487;28;20543;-68
2021/03/20 12:44:48;;;;;;;3.20;2.13;;;20.80;58.00;;;;;;5057442;28;20025;-69
2021/03/20 12:47:17;;;;;;;5.82;2.60;;;21.60;58.50;;;;;;5057398;28;20029;-68
2021/03/20 12:49:43;;;;;;;3.55;2.70;;;21.50;55.40;;;;;;5057147;28;20102;-69
2021/03/20 12:52:16;;;;;;;4.03;2.17;;;21.30;58.00;;;;;;5057385;28;20028;-69
2021/03/20 12:54:46;;;;;;;3.15;1.83;;;21.60;56.40;;;;;;5057385;28;20027;-69
2021/03/20 12:57:28;;;;;;;4.97;1.70;;;21.90;57.90;;;;;;5057256;28;20143;-69
2021/03/20 12:59:54;;;;;;;2.15;1.40;;;22.00;56.10;;;;;;5057186;28;20037;-69
2021/03/20 13:02:21;;;;;;;3.15;2.20;;;21.70;55.20;;;;;;5057385;28;20029;-69
2021/03/20 13:04:48;;;;;;;8.18;1.75;;;21.00;54.10;;;;;;5056924;28;20120;-69
2021/03/20 13:07:14;;;;;;;2.03;1.27;;;21.00;57.00;;;;;;5057051;28;20020;-69
2021/03/20 13:09:40;;;;;;;5.43;1.60;;;21.60;55.80;;;;;;5057196;28;20070;-69
2021/03/20 13:12:08;;;;;;;6.95;2.15;;;21.80;55.70;;;;;;5057137;28;20068;-69
2021/03/20 13:14:34;;;;;;;3.05;1.90;;;21.70;56.00;;;;;;5057125;28;20025;-69
2021/03/20 13:17:05;;;;;;;3.15;1.50;;;21.70;57.00;;;;;;5057060;28;20025;-69
2021/03/20 13:19:32;;;;;;;3.88;2.17;;;21.10;56.60;;;;;;5056649;28;20067;-69
2021/03/20 13:21:59;;;;;;;3.70;1.77;;;20.60;57.30;;;;;;5057012;28;20108;-69
2021/03/20 13:24:25;;;;;;;6.75;2.00;;;20.10;57.00;;;;;;5057108;28;20025;-69
2021/03/20 13:26:51;;;;;;;4.13;1.42;;;20.10;58.70;;;;;;5057007;28;20044;-69
2021/03/20 13:29:17;;;;;;;4.30;1.30;;;20.30;57.90;;;;;;5057001;28;21434;-69
2021/03/20 13:31:43;;;;;;;3.42;1.65;;;20.50;58.80;;;;;;5057008;28;20025;-69
2021/03/20 13:34:09;;;;;;;4.15;1.63;;;20.60;56.30;;;;;;5053294;28;20022;-69